Time;durP1;ratioP1;P1;durP2;ratioP2;P2;SDS_P1;SDS_P2;PMS_P1;PMS_P2;Temp;Humidity;BMP_temperature;BMP_pressure;BME280_temperature;BME280_humidity;BME280_pressure;Samples;Min_cycle;Max_cycle;Signal;HPM_P1;HPM_P2
2022/12/24 00:00:11;;;;;;;;;;;;;;;;;;1042064;28;2953;-55
2022/12/24 00:00:48;;;;;;;;;;;;;;;;;;1044093;28;4155;-55
2022/12/24 00:01:23;;;;;;;;;;;;;;;;;;1045038;28;4035;-53
2022/12/24 00:01:54;;;;;;;;;;;;;;;;;;1045937;28;2629;-51
2022/12/24 00:02:24;;;;;;;;;;;;;;;;;;1044364;28;3794;-54
2022/12/24 00:02:54;;;;;;;;;;;;;;;;;;1043935;28;2938;-52
2022/12/24 00:03:24;;;;;;;;;;;;;;;;;;1045283;28;4241;-55
2022/12/24 00:03:55;;;;;;;;;;;;;;;;;;1044016;28;2841;-50
2022/12/24 00:04:25;;;;;;;;;;;;;;;;;;1043660;28;4007;-53
2022/12/24 00:04:55;;;;;;;;;;;;;;;;;;1045130;28;2788;-54
2022/12/24 00:05:25;;;;;;;;;;;;;;;;;;1046545;28;4372;-54
2022/12/24 00:05:56;;;;;;;;;;;;;;;;;;1043915;28;2911;-49
2022/12/24 00:06:26;;;;;;;;;;;;;;;;;;1042669;28;3777;-52
2022/12/24 00:06:56;;;;;;;;;;;;;;;;;;1044609;28;2545;-54
2022/12/24 00:07:27;;;;;;;;;;;;;;;;;;1044372;28;4095;-57
2022/12/24 00:07:57;;;;;;;;;;;;;;;;;;1044297;28;2890;-52
2022/12/24 00:08:27;;;;;;;;;;;;;;;;;;1042596;28;3785;-55
2022/12/24 00:08:57;;;;;;;;;;;;;;;;;;1045159;28;2623;-54
2022/12/24 00:09:28;;;;;;;;;;;;;;;;;;1044442;28;4407;-57
2022/12/24 00:09:58;;;;;;;;;;;;;;;;;;1044900;28;2842;-56
2022/12/24 00:10:28;;;;;;;;;;;;;;;;;;1042882;28;4290;-52
2022/12/24 00:10:58;;;;;;;;;;;;;;;;;;1043290;28;1824;-50
2022/12/24 00:11:29;;;;;;;;;;;;;;;;;;1042560;28;4058;-53
2022/12/24 00:11:59;;;;;;;;;;;;;;;;;;1046539;28;2455;-52
2022/12/24 00:12:29;;;;;;;;;;;;;;;;;;1044979;28;4054;-55
2022/12/24 00:12:59;;;;;;;;;;;;;;;;;;1045103;28;2195;-53
2022/12/24 00:13:30;;;;;;;;;;;;;;;;;;1044072;28;4372;-53
2022/12/24 00:14:00;;;;;;;;;;;;;;;;;;1046644;28;2708;-50
2022/12/24 00:14:30;;;;;;;;;;;;;;;;;;1044003;28;4214;-53
2022/12/24 00:15:01;;;;;;;;;;;;;;;;;;1046225;28;2682;-53
2022/12/24 00:15:31;;;;;;;;;;;;;;;;;;1043556;28;4464;-55
2022/12/24 00:16:01;;;;;;;;;;;;;;;;;;1045189;28;2101;-51
2022/12/24 00:16:32;;;;;;;;;;;;;;;;;;1042736;28;3884;-53
2022/12/24 00:17:02;;;;;;;;;;;;;;;;;;1043641;28;1963;-54
2022/12/24 00:17:32;;;;;;;;;;;;;;;;;;1045787;28;3975;-50
2022/12/24 00:18:03;;;;;;;;;;;;;;;;;;1045052;28;2688;-56
2022/12/24 00:18:33;;;;;;;;;;;;;;;;;;1043189;28;4046;-50
2022/12/24 00:19:03;;;;;;;;;;;;;;;;;;1045320;28;2831;-50
2022/12/24 00:19:33;;;;;;;;;;;;;;;;;;1043057;28;4368;-53
2022/12/24 00:20:04;;;;;;;;;;;;;;;;;;1044324;28;2732;-53
2022/12/24 00:20:34;;;;;;;;;;;;;;;;;;1045668;28;3873;-53
2022/12/24 00:21:05;;;;;;;;;;;;;;;;;;1047062;28;1781;-54
2022/12/24 00:21:35;;;;;;;;;;;;;;;;;;1041565;28;4186;-54
2022/12/24 00:22:06;;;;;;;;;;;;;;;;;;1042998;28;2711;-55
2022/12/24 00:22:36;;;;;;;;;;;;;;;;;;1046492;28;3860;-56
2022/12/24 00:23:07;;;;;;;;;;;;;;;;;;1047922;28;1385;-53
2022/12/24 00:23:37;;;;;;;;;;;;;;;;;;1045614;28;4388;-55
2022/12/24 00:24:07;;;;;;;;;;;;;;;;;;1047435;28;2799;-51
2022/12/24 00:24:37;;;;;;;;;;;;;;;;;;1045003;28;3863;-56
2022/12/24 00:25:08;;;;;;;;;;;;;;;;;;1043015;28;2019;-55
2022/12/24 00:25:38;;;;;;;;;;;;;;;;;;1041779;28;4193;-53
2022/12/24 00:26:08;;;;;;;;;;;;;;;;;;1043322;28;3621;-53
2022/12/24 00:26:39;;;;;;;;;;;;;;;;;;1043653;28;3841;-54
2022/12/24 00:27:09;;;;;;;;;;;;;;;;;;1044913;28;2816;-53
2022/12/24 00:27:39;;;;;;;;;;;;;;;;;;1043810;28;3788;-56
2022/12/24 00:28:09;;;;;;;;;;;;;;;;;;1043758;28;2535;-55
2022/12/24 00:28:40;;;;;;;;;;;;;;;;;;1045180;28;4073;-53
2022/12/24 00:29:10;;;;;;;;;;;;;;;;;;1046309;28;1909;-52
2022/12/24 00:29:47;;;;;;;;;;;;;;;;;;1046605;28;3856;-54
2022/12/24 00:30:17;;;;;;;;;;;;;;;;;;1044895;28;4058;-52
2022/12/24 00:30:48;;;;;;;;;;;;;;;;;;1046670;28;2484;-54
2022/12/24 00:31:18;;;;;;;;;;;;;;;;;;1044591;28;4404;-52
2022/12/24 00:31:48;;;;;;;;;;;;;;;;;;1044688;28;2221;-53
2022/12/24 00:32:18;;;;;;;;;;;;;;;;;;1043752;28;4468;-51
2022/12/24 00:32:49;;;;;;;;;;;;;;;;;;1047458;28;1724;-53
2022/12/24 00:33:21;;;;;;;;;;;;;;;;;;1045616;28;3901;-52
2022/12/24 00:33:51;;;;;;;;;;;;;;;;;;1043560;28;3589;-52
2022/12/24 00:34:22;;;;;;;;;;;;;;;;;;1043909;28;3972;-51
2022/12/24 00:34:52;;;;;;;;;;;;;;;;;;1046889;28;1792;-55
2022/12/24 00:35:23;;;;;;;;;;;;;;;;;;1045297;28;4029;-50
2022/12/24 00:35:53;;;;;;;;;;;;;;;;;;1043600;28;2629;-51
2022/12/24 00:36:23;;;;;;;;;;;;;;;;;;1041220;28;3770;-53
2022/12/24 00:36:53;;;;;;;;;;;;;;;;;;1044586;28;2961;-53
2022/12/24 00:37:24;;;;;;;;;;;;;;;;;;1043559;28;3809;-53
2022/12/24 00:37:54;;;;;;;;;;;;;;;;;;1045922;28;1763;-52
2022/12/24 00:38:24;;;;;;;;;;;;;;;;;;1045907;28;4633;-55
2022/12/24 00:38:54;;;;;;;;;;;;;;;;;;1042999;28;2924;-53
2022/12/24 00:39:25;;;;;;;;;;;;;;;;;;1045378;28;3816;-52
2022/12/24 00:39:55;;;;;;;;;;;;;;;;;;1044178;28;2991;-49
2022/12/24 00:40:25;;;;;;;;;;;;;;;;;;1045699;28;4402;-53
2022/12/24 00:41:00;;;;;;;;;;;;;;;;;;1045708;28;1815;-55
2022/12/24 00:41:30;;;;;;;;;;;;;;;;;;1043801;28;3755;-52
2022/12/24 00:42:01;;;;;;;;;;;;;;;;;;1045825;28;2645;-53
2022/12/24 00:42:31;;;;;;;;;;;;;;;;;;1046684;28;3945;-53
2022/12/24 00:43:01;;;;;;;;;;;;;;;;;;1042013;28;2729;-56
2022/12/24 00:43:31;;;;;;;;;;;;;;;;;;1043893;28;3752;-54
2022/12/24 00:44:04;;;;;;;;;;;;;;;;;;1044579;28;2056;-56
2022/12/24 00:44:35;;;;;;;;;;;;;;;;;;1045481;28;4016;-53
2022/12/24 00:45:05;;;;;;;;;;;;;;;;;;1045567;28;2992;-56
2022/12/24 00:45:35;;;;;;;;;;;;;;;;;;1045344;28;3945;-55
2022/12/24 00:46:05;;;;;;;;;;;;;;;;;;1047071;28;1667;-57
2022/12/24 00:46:37;;;;;;;;;;;;;;;;;;1043390;28;4020;-52
2022/12/24 00:47:07;;;;;;;;;;;;;;;;;;1042062;28;2601;-54
2022/12/24 00:47:37;;;;;;;;;;;;;;;;;;1045737;28;4376;-57
2022/12/24 00:48:08;;;;;;;;;;;;;;;;;;1044699;28;2015;-55
2022/12/24 00:48:38;;;;;;;;;;;;;;;;;;1043711;28;4261;-57
2022/12/24 00:49:09;;;;;;;;;;;;;;;;;;1043341;28;2711;-53
2022/12/24 00:49:40;;;;;;;;;;;;;;;;;;1043880;28;3884;-52
2022/12/24 00:50:16;;;;;;;;;;;;;;;;;;1043480;28;2625;-55
2022/12/24 00:50:46;;;;;;;;;;;;;;;;;;1046479;28;3838;-51
2022/12/24 00:51:17;;;;;;;;;;;;;;;;;;1043005;28;3825;-53
2022/12/24 00:51:48;;;;;;;;;;;;;;;;;;1044473;28;2768;-54
2022/12/24 00:52:18;;;;;;;;;;;;;;;;;;1045855;28;4098;-51
2022/12/24 00:53:02;;;;;;;;;;;;;;;;;;1043909;28;2585;-52
2022/12/24 00:53:32;;;;;;;;;;;;;;;;;;1046999;28;3853;-51
2022/12/24 00:54:03;;;;;;;;;;;;;;;;;;1047660;28;2021;-54
2022/12/24 00:54:33;;;;;;;;;;;;;;;;;;1046069;28;3791;-53
2022/12/24 00:55:04;;;;;;;;;;;;;;;;;;1051410;28;1675;-53
2022/12/24 00:55:34;;;;;;;;;;;;;;;;;;1047261;28;4073;-51
2022/12/24 00:56:05;;;;;;;;;;;;;;;;;;1050303;28;2744;-53
2022/12/24 00:56:35;;;;;;;;;;;;;;;;;;1049603;28;3959;-54
2022/12/24 00:57:05;;;;;;;;;;;;;;;;;;1047757;28;2057;-52
2022/12/24 00:57:35;;;;;;;;;;;;;;;;;;1048805;28;3786;-56
2022/12/24 00:58:05;;;;;;;;;;;;;;;;;;1047971;28;2956;-53
2022/12/24 00:58:36;;;;;;;;;;;;;;;;;;1048863;28;3924;-54
2022/12/24 00:59:06;;;;;;;;;;;;;;;;;;1048109;28;2675;-55
2022/12/24 00:59:36;;;;;;;;;;;;;;;;;;1048089;28;4093;-54
2022/12/24 01:00:07;;;;;;;;;;;;;;;;;;1045975;28;2533;-55
2022/12/24 01:00:38;;;;;;;;;;;;;;;;;;1047308;28;3869;-55
2022/12/24 01:01:08;;;;;;;;;;;;;;;;;;1048405;28;2972;-55
2022/12/24 01:01:39;;;;;;;;;;;;;;;;;;1049363;28;4240;-54
2022/12/24 01:02:09;;;;;;;;;;;;;;;;;;1049001;28;1873;-53
2022/12/24 01:02:39;;;;;;;;;;;;;;;;;;1049447;28;3773;-52
2022/12/24 01:03:09;;;;;;;;;;;;;;;;;;1051393;28;2579;-52
2022/12/24 01:03:40;;;;;;;;;;;;;;;;;;1049114;28;3911;-55
2022/12/24 01:05:11;;;;;;;;;;;;;;;;;;1047986;28;3720;-53
2022/12/24 01:05:41;;;;;;;;;;;;;;;;;;1051173;28;3898;-54
2022/12/24 01:06:16;;;;;;;;;;;;;;;;;;1051756;28;1849;-56
2022/12/24 01:06:46;;;;;;;;;;;;;;;;;;1047444;28;3831;-55
2022/12/24 01:07:17;;;;;;;;;;;;;;;;;;1044449;28;3814;-52
2022/12/24 01:07:47;;;;;;;;;;;;;;;;;;1047392;28;1985;-54
2022/12/24 01:08:17;;;;;;;;;;;;;;;;;;1044528;28;4234;-56
2022/12/24 01:08:54;;;;;;;;;;;;;;;;;;1046332;28;2978;-48
2022/12/24 01:09:24;;;;;;;;;;;;;;;;;;1048593;28;4254;-55
2022/12/24 01:09:55;;;;;;;;;;;;;;;;;;1046970;28;1595;-51
2022/12/24 01:10:25;;;;;;;;;;;;;;;;;;1049475;28;3785;-54
2022/12/24 01:10:55;;;;;;;;;;;;;;;;;;1050938;28;2027;-55
2022/12/24 01:11:26;;;;;;;;;;;;;;;;;;1051326;28;4212;-54
2022/12/24 01:11:56;;;;;;;;;;;;;;;;;;1049211;28;1918;-54
2022/12/24 01:12:26;;;;;;;;;;;;;;;;;;1051212;28;3879;-55
2022/12/24 01:12:59;;;;;;;;;;;;;;;;;;1048154;28;2993;-54
2022/12/24 01:13:30;;;;;;;;;;;;;;;;;;1049657;28;4394;-51
2022/12/24 01:14:00;;;;;;;;;;;;;;;;;;1047890;28;1976;-55
2022/12/24 01:14:30;;;;;;;;;;;;;;;;;;1047265;28;3954;-56
2022/12/24 01:15:01;;;;;;;;;;;;;;;;;;1047988;28;2031;-52
2022/12/24 01:15:31;;;;;;;;;;;;;;;;;;1050298;28;3918;-49
2022/12/24 01:16:02;;;;;;;;;;;;;;;;;;1051000;28;1960;-52
2022/12/24 01:16:32;;;;;;;;;;;;;;;;;;1049033;28;4466;-55
2022/12/24 01:17:03;;;;;;;;;;;;;;;;;;1047824;28;2959;-54
2022/12/24 01:17:33;;;;;;;;;;;;;;;;;;1047626;28;3922;-56
2022/12/24 01:18:04;;;;;;;;;;;;;;;;;;1048109;28;2196;-50
2022/12/24 01:18:34;;;;;;;;;;;;;;;;;;1047496;28;3774;-51
2022/12/24 01:19:04;;;;;;;;;;;;;;;;;;1049250;28;2619;-54
2022/12/24 01:19:34;;;;;;;;;;;;;;;;;;1043232;28;4376;-55
2022/12/24 01:20:05;;;;;;;;;;;;;;;;;;1046884;28;2175;-50
2022/12/24 01:20:36;;;;;;;;;;;;;;;;;;1046471;28;4260;-51
2022/12/24 01:21:06;;;;;;;;;;;;;;;;;;1046857;28;1889;-55
2022/12/24 01:21:36;;;;;;;;;;;;;;;;;;1049129;28;4060;-55
2022/12/24 01:22:06;;;;;;;;;;;;;;;;;;1048157;28;2820;-55
2022/12/24 01:22:37;;;;;;;;;;;;;;;;;;1047260;28;3797;-51
2022/12/24 01:23:07;;;;;;;;;;;;;;;;;;1046483;28;2851;-55
2022/12/24 01:23:37;;;;;;;;;;;;;;;;;;1047630;28;3886;-55
2022/12/24 01:24:12;;;;;;;;;;;;;;;;;;1048453;28;3436;-52
2022/12/24 01:24:42;;;;;;;;;;;;;;;;;;1047374;28;3779;-52
2022/12/24 01:25:13;;;;;;;;;;;;;;;;;;1046239;28;2863;-54
2022/12/24 01:25:43;;;;;;;;;;;;;;;;;;1041875;28;4194;-52
2022/12/24 01:26:13;;;;;;;;;;;;;;;;;;1040255;28;3008;-56
2022/12/24 01:26:44;;;;;;;;;;;;;;;;;;1039988;28;3905;-51
2022/12/24 01:27:14;;;;;;;;;;;;;;;;;;1043090;28;1765;-51
2022/12/24 01:27:44;;;;;;;;;;;;;;;;;;1047052;28;4175;-53
2022/12/24 01:28:14;;;;;;;;;;;;;;;;;;1047738;28;2914;-53
2022/12/24 01:28:45;;;;;;;;;;;;;;;;;;1047089;28;3796;-57
2022/12/24 01:29:15;;;;;;;;;;;;;;;;;;1050585;28;2479;-53
2022/12/24 01:29:45;;;;;;;;;;;;;;;;;;1047686;28;3932;-53
2022/12/24 01:30:16;;;;;;;;;;;;;;;;;;1045948;28;4354;-55
2022/12/24 01:30:47;;;;;;;;;;;;;;;;;;1044005;28;3914;-52
2022/12/24 01:31:18;;;;;;;;;;;;;;;;;;1042857;28;4054;-52
2022/12/24 01:31:48;;;;;;;;;;;;;;;;;;1045500;28;2772;-51
2022/12/24 01:32:19;;;;;;;;;;;;;;;;;;1043784;28;4441;-54
2022/12/24 01:32:49;;;;;;;;;;;;;;;;;;1046981;28;1974;-52
2022/12/24 01:33:20;;;;;;;;;;;;;;;;;;1042485;28;4089;-53
2022/12/24 01:33:50;;;;;;;;;;;;;;;;;;1046466;28;2499;-52
2022/12/24 01:34:20;;;;;;;;;;;;;;;;;;1042054;28;4040;-52
2022/12/24 01:34:50;;;;;;;;;;;;;;;;;;1043735;28;2445;-51
2022/12/24 01:35:21;;;;;;;;;;;;;;;;;;1049099;28;3794;-55
2022/12/24 01:35:51;;;;;;;;;;;;;;;;;;1047022;28;3247;-51
2022/12/24 01:36:21;;;;;;;;;;;;;;;;;;1047767;28;3853;-53
2022/12/24 01:36:51;;;;;;;;;;;;;;;;;;1048676;28;3514;-53
2022/12/24 01:37:22;;;;;;;;;;;;;;;;;;1050407;28;4522;-53
2022/12/24 01:37:52;;;;;;;;;;;;;;;;;;1048525;28;2689;-56
2022/12/24 01:38:23;;;;;;;;;;;;;;;;;;1048413;28;3853;-50
2022/12/24 01:38:53;;;;;;;;;;;;;;;;;;1051772;28;1785;-50
2022/12/24 01:39:23;;;;;;;;;;;;;;;;;;1049187;28;3914;-53
2022/12/24 01:43:22;;;;;;;;;;;;;;;;;;1049101;28;2651;-55
2022/12/24 01:43:26;;;;;;;;;;;;;;;;;;1047478;28;1739;-52
2022/12/24 01:43:57;;;;;;;;;;;;;;;;;;1046608;28;3843;-54
2022/12/24 01:44:31;;;;;;;;;;;;;;;;;;1047581;28;4217;-53
2022/12/24 01:45:20;;;;;;;;;;;;;;;;;;1048427;28;2673;-56
2022/12/24 01:45:55;;;;;;;;;;;;;;;;;;1047846;28;4204;-54
2022/12/24 01:46:28;;;;;;;;;;;;;;;;;;1047218;28;3958;-53
2022/12/24 01:47:02;;;;;;;;;;;;;;;;;;1048454;28;2115;-52
2022/12/24 01:47:32;;;;;;;;;;;;;;;;;;1050710;28;3943;-55
2022/12/24 01:48:03;;;;;;;;;;;;;;;;;;1045687;28;2480;-56
2022/12/24 01:48:47;;;;;;;;;;;;;;;;;;1043718;28;3948;-56
2022/12/24 01:49:18;;;;;;;;;;;;;;;;;;1044409;28;3976;-52
2022/12/24 01:49:51;;;;;;;;;;;;;;;;;;1048117;28;2763;-51
2022/12/24 01:50:28;;;;;;;;;;;;;;;;;;1047912;28;4591;-53
2022/12/24 01:51:08;;;;;;;;;;;;;;;;;;1049671;28;1724;-54
2022/12/24 01:51:50;;;;;;;;;;;;;;;;;;1048665;28;4481;-54
2022/12/24 01:52:28;;;;;;;;;;;;;;;;;;1047589;28;3969;-50
2022/12/24 01:53:12;;;;;;;;;;;;;;;;;;1046219;28;1761;-53
2022/12/24 01:53:52;;;;;;;;;;;;;;;;;;1048716;28;3662;-51
2022/12/24 01:54:31;;;;;;;;;;;;;;;;;;1047175;28;4206;-53
2022/12/24 01:55:05;;;;;;;;;;;;;;;;;;1047601;28;2937;-54
2022/12/24 01:55:35;;;;;;;;;;;;;;;;;;1045908;28;4421;-55
2022/12/24 01:56:08;;;;;;;;;;;;;;;;;;1048046;28;2788;-52
2022/12/24 01:56:47;;;;;;;;;;;;;;;;;;1045209;28;3774;-54
2022/12/24 01:57:20;;;;;;;;;;;;;;;;;;1049607;28;3795;-53
2022/12/24 01:57:55;;;;;;;;;;;;;;;;;;1048726;28;1832;-55
2022/12/24 01:58:25;;;;;;;;;;;;;;;;;;1047332;28;3960;-48
2022/12/24 01:58:59;;;;;;;;;;;;;;;;;;1046944;28;2208;-53
2022/12/24 01:59:29;;;;;;;;;;;;;;;;;;1050276;28;3975;-53
2022/12/24 02:00:04;;;;;;;;;;;;;;;;;;1049017;28;2463;-51
2022/12/24 02:00:34;;;;;;;;;;;;;;;;;;1047388;28;4000;-54
2022/12/24 02:01:05;;;;;;;;;;;;;;;;;;1047994;28;2635;-58
2022/12/24 02:01:35;;;;;;;;;;;;;;;;;;1046908;28;3863;-50
2022/12/24 02:02:06;;;;;;;;;;;;;;;;;;1049060;28;2645;-53
2022/12/24 02:02:38;;;;;;;;;;;;;;;;;;1050170;28;3952;-53
2022/12/24 02:03:09;;;;;;;;;;;;;;;;;;1048420;28;2503;-51
2022/12/24 02:03:39;;;;;;;;;;;;;;;;;;1048235;28;3792;-54
2022/12/24 02:04:24;;;;;;;;;;;;;;;;;;1045433;28;2596;-51
2022/12/24 02:04:57;;;;;;;;;;;;;;;;;;1042724;28;3860;-53
2022/12/24 02:05:30;;;;;;;;;;;;;;;;;;1043411;28;3872;-53
2022/12/24 02:06:01;;;;;;;;;;;;;;;;;;1041556;28;2989;-56
2022/12/24 02:06:31;;;;;;;;;;;;;;;;;;1043419;28;3788;-53
2022/12/24 02:07:02;;;;;;;;;;;;;;;;;;1042246;28;2438;-51
2022/12/24 02:07:32;;;;;;;;;;;;;;;;;;1042293;28;4386;-57
2022/12/24 02:08:03;;;;;;;;;;;;;;;;;;1045768;28;2734;-53
2022/12/24 02:08:40;;;;;;;;;;;;;;;;;;1045946;28;3971;-55
2022/12/24 02:09:10;;;;;;;;;;;;;;;;;;1047806;28;1619;-52
2022/12/24 02:09:41;;;;;;;;;;;;;;;;;;1046363;28;3731;-53
2022/12/24 02:10:12;;;;;;;;;;;;;;;;;;1050186;28;2229;-53
2022/12/24 02:10:42;;;;;;;;;;;;;;;;;;1047957;28;3776;-51
2022/12/24 02:11:16;;;;;;;;;;;;;;;;;;1048395;28;1813;-56
2022/12/24 02:11:47;;;;;;;;;;;;;;;;;;1047200;28;3821;-54
2022/12/24 02:12:17;;;;;;;;;;;;;;;;;;1049294;28;3822;-53
2022/12/24 02:12:48;;;;;;;;;;;;;;;;;;1050939;28;2331;-51
2022/12/24 02:13:19;;;;;;;;;;;;;;;;;;1045597;28;4393;-53
2022/12/24 02:13:51;;;;;;;;;;;;;;;;;;1044755;28;2601;-52
2022/12/24 02:14:22;;;;;;;;;;;;;;;;;;1045427;28;4008;-52
2022/12/24 02:14:52;;;;;;;;;;;;;;;;;;1044628;28;2183;-52
2022/12/24 02:15:22;;;;;;;;;;;;;;;;;;1048152;28;4881;-50
2022/12/24 02:16:08;;;;;;;;;;;;;;;;;;1048267;28;3003;-55
2022/12/24 02:16:57;;;;;;;;;;;;;;;;;;1048756;28;4228;-54
2022/12/24 02:18:03;;;;;;;;;;;;;;;;;;1050315;28;4407;-56
2022/12/24 02:18:40;;;;;;;;;;;;;;;;;;1048863;28;3792;-51
2022/12/24 02:19:30;;;;;;;;;;;;;;;;;;1044300;28;2390;-55
2022/12/24 02:20:19;;;;;;;;;;;;;;;;;;1044632;28;3673;-52
2022/12/24 02:20:52;;;;;;;;;;;;;;;;;;1048044;28;4028;-53
2022/12/24 02:21:26;;;;;;;;;;;;;;;;;;1049984;28;3913;-54
2022/12/24 02:22:16;;;;;;;;;;;;;;;;;;1050322;28;2467;-51
2022/12/24 02:23:05;;;;;;;;;;;;;;;;;;1036547;28;3938;-52
2022/12/24 02:23:54;;;;;;;;;;;;;;;;;;1043023;28;3800;-54
2022/12/24 02:24:30;;;;;;;;;;;;;;;;;;1044332;28;3881;-56
2022/12/24 02:25:20;;;;;;;;;;;;;;;;;;1043435;28;1638;-53
2022/12/24 02:26:01;;;;;;;;;;;;;;;;;;1049148;28;3890;-55
2022/12/24 02:26:50;;;;;;;;;;;;;;;;;;1048944;28;3845;-54
2022/12/24 02:27:26;;;;;;;;;;;;;;;;;;1050213;28;3805;-48
2022/12/24 02:28:03;;;;;;;;;;;;;;;;;;1050427;28;2490;-54
2022/12/24 02:28:40;;;;;;;;;;;;;;;;;;1045743;28;3794;-56
2022/12/24 02:29:28;;;;;;;;;;;;;;;;;;1050656;28;2964;-54
2022/12/24 02:30:01;;;;;;;;;;;;;;;;;;1049517;28;3936;-56
2022/12/24 02:30:33;;;;;;;;;;;;;;;;;;1048905;28;3852;-52
2022/12/24 02:31:06;;;;;;;;;;;;;;;;;;1050095;28;2489;-52
2022/12/24 02:31:52;;;;;;;;;;;;;;;;;;1048223;28;4057;-49
2022/12/24 02:32:24;;;;;;;;;;;;;;;;;;1047616;28;3934;-53
2022/12/24 02:33:07;;;;;;;;;;;;;;;;;;1048007;28;2897;-53
2022/12/24 02:33:41;;;;;;;;;;;;;;;;;;1048243;28;3851;-54
2022/12/24 02:34:18;;;;;;;;;;;;;;;;;;1052495;28;1711;-52
2022/12/24 02:34:57;;;;;;;;;;;;;;;;;;1049860;28;3837;-53
2022/12/24 02:35:27;;;;;;;;;;;;;;;;;;1047463;28;4027;-56
2022/12/24 02:36:05;;;;;;;;;;;;;;;;;;1047876;28;3147;-51
2022/12/24 02:36:39;;;;;;;;;;;;;;;;;;1041966;28;4406;-52
2022/12/24 02:37:14;;;;;;;;;;;;;;;;;;1044476;28;2687;-54
2022/12/24 02:37:47;;;;;;;;;;;;;;;;;;1044367;28;4197;-56
2022/12/24 02:38:36;;;;;;;;;;;;;;;;;;1047000;28;4359;-53
2022/12/24 02:39:21;;;;;;;;;;;;;;;;;;1047279;28;3923;-54
2022/12/24 02:39:58;;;;;;;;;;;;;;;;;;1050216;28;4161;-54
2022/12/24 02:40:45;;;;;;;;;;;;;;;;;;1048067;28;4070;-51
2022/12/24 02:41:17;;;;;;;;;;;;;;;;;;1050010;28;2766;-52
2022/12/24 02:42:05;;;;;;;;;;;;;;;;;;1049337;28;3997;-50
2022/12/24 02:42:38;;;;;;;;;;;;;;;;;;1047010;28;3920;-51
2022/12/24 02:43:10;;;;;;;;;;;;;;;;;;1049284;28;2437;-50
2022/12/24 02:43:42;;;;;;;;;;;;;;;;;;1049724;28;3890;-51
2022/12/24 02:44:13;;;;;;;;;;;;;;;;;;1049949;28;2666;-55
2022/12/24 02:44:52;;;;;;;;;;;;;;;;;;1048805;28;4160;-53
2022/12/24 02:45:28;;;;;;;;;;;;;;;;;;1048662;28;4270;-56
2022/12/24 02:46:00;;;;;;;;;;;;;;;;;;1051369;28;1802;-52
2022/12/24 02:46:31;;;;;;;;;;;;;;;;;;1051016;28;4399;-56
2022/12/24 02:47:02;;;;;;;;;;;;;;;;;;1049482;28;2167;-54
2022/12/24 02:47:33;;;;;;;;;;;;;;;;;;1050360;28;4411;-56
2022/12/24 02:48:04;;;;;;;;;;;;;;;;;;1050973;28;3097;-51
2022/12/24 02:48:36;;;;;;;;;;;;;;;;;;1049496;28;3864;-53
2022/12/24 02:49:06;;;;;;;;;;;;;;;;;;1050753;28;2783;-53
2022/12/24 02:49:37;;;;;;;;;;;;;;;;;;1047831;28;4557;-52
2022/12/24 02:50:07;;;;;;;;;;;;;;;;;;1047008;28;2452;-55
2022/12/24 02:50:54;;;;;;;;;;;;;;;;;;1046251;28;4000;-53
2022/12/24 02:51:24;;;;;;;;;;;;;;;;;;1042942;28;4140;-57
2022/12/24 02:51:54;;;;;;;;;;;;;;;;;;1044286;28;2764;-52
2022/12/24 02:52:29;;;;;;;;;;;;;;;;;;1047664;28;3779;-49
2022/12/24 02:53:12;;;;;;;;;;;;;;;;;;1045861;28;1977;-53
2022/12/24 02:53:49;;;;;;;;;;;;;;;;;;1049300;28;3953;-52
2022/12/24 02:54:19;;;;;;;;;;;;;;;;;;1051398;28;3879;-55
2022/12/24 02:54:50;;;;;;;;;;;;;;;;;;1051222;28;2242;-54
2022/12/24 02:55:29;;;;;;;;;;;;;;;;;;1050126;28;4405;-54
2022/12/24 02:56:02;;;;;;;;;;;;;;;;;;1047784;28;2680;-54
2022/12/24 02:56:35;;;;;;;;;;;;;;;;;;1046773;28;4179;-55
2022/12/24 02:57:22;;;;;;;;;;;;;;;;;;1048619;28;2518;-52
2022/12/24 02:58:09;;;;;;;;;;;;;;;;;;1051282;28;3685;-52
2022/12/24 02:58:39;;;;;;;;;;;;;;;;;;1048035;28;4513;-55
2022/12/24 02:59:27;;;;;;;;;;;;;;;;;;1048291;28;2953;-48
2022/12/24 02:59:59;;;;;;;;;;;;;;;;;;1049321;28;3704;-54
2022/12/24 03:00:54;;;;;;;;;;;;;;;;;;1046029;28;3956;-54
2022/12/24 03:01:34;;;;;;;;;;;;;;;;;;1047435;28;4221;-55
2022/12/24 03:02:23;;;;;;;;;;;;;;;;;;1049744;28;1692;-54
2022/12/24 03:03:07;;;;;;;;;;;;;;;;;;1048867;28;3643;-55
2022/12/24 03:03:43;;;;;;;;;;;;;;;;;;1049146;28;4417;-53
2022/12/24 03:04:40;;;;;;;;;;;;;;;;;;1051304;28;1684;-55
2022/12/24 03:05:16;;;;;;;;;;;;;;;;;;1050789;28;4255;-57
2022/12/24 03:05:48;;;;;;;;;;;;;;;;;;1050468;28;3871;-51
2022/12/24 03:06:23;;;;;;;;;;;;;;;;;;1046089;28;3962;-54
2022/12/24 03:07:04;;;;;;;;;;;;;;;;;;1049542;28;2811;-55
2022/12/24 03:07:52;;;;;;;;;;;;;;;;;;1048271;28;4045;-52
2022/12/24 03:08:41;;;;;;;;;;;;;;;;;;1046422;28;3975;-53
2022/12/24 03:09:14;;;;;;;;;;;;;;;;;;1050714;28;2798;-52
2022/12/24 03:09:50;;;;;;;;;;;;;;;;;;1050734;28;4028;-54
2022/12/24 03:10:29;;;;;;;;;;;;;;;;;;1042757;28;4425;-52
2022/12/24 03:11:02;;;;;;;;;;;;;;;;;;1044646;28;2681;-55
2022/12/24 03:11:33;;;;;;;;;;;;;;;;;;1041493;28;4129;-55
2022/12/24 03:12:09;;;;;;;;;;;;;;;;;;1044237;28;4579;-53
2022/12/24 03:12:42;;;;;;;;;;;;;;;;;;1045722;28;3942;-52
2022/12/24 03:13:14;;;;;;;;;;;;;;;;;;1047286;28;2783;-55
2022/12/24 03:13:46;;;;;;;;;;;;;;;;;;1048018;28;3840;-55
2022/12/24 03:14:17;;;;;;;;;;;;;;;;;;1050413;28;4170;-54
2022/12/24 03:14:47;;;;;;;;;;;;;;;;;;1050465;28;2993;-53
2022/12/24 03:15:19;;;;;;;;;;;;;;;;;;1047614;28;4068;-53
2022/12/24 03:15:50;;;;;;;;;;;;;;;;;;1050134;28;2778;-52
2022/12/24 03:16:22;;;;;;;;;;;;;;;;;;1047385;28;4104;-51
2022/12/24 03:16:53;;;;;;;;;;;;;;;;;;1044425;28;2361;-56
2022/12/24 03:17:24;;;;;;;;;;;;;;;;;;1045045;28;3994;-53
2022/12/24 03:17:56;;;;;;;;;;;;;;;;;;1047195;28;1721;-52
2022/12/24 03:18:27;;;;;;;;;;;;;;;;;;1046745;28;3864;-55
2022/12/24 03:18:58;;;;;;;;;;;;;;;;;;1049063;28;2555;-54
2022/12/24 03:19:29;;;;;;;;;;;;;;;;;;1049872;28;3867;-49
2022/12/24 03:19:59;;;;;;;;;;;;;;;;;;1050295;28;2987;-53
2022/12/24 03:20:55;;;;;;;;;;;;;;;;;;1049798;28;4055;-53
2022/12/24 03:21:27;;;;;;;;;;;;;;;;;;1045540;28;3983;-50
2022/12/24 03:21:59;;;;;;;;;;;;;;;;;;1047560;28;1845;-53
2022/12/24 03:22:30;;;;;;;;;;;;;;;;;;1048235;28;4058;-54
2022/12/24 03:23:00;;;;;;;;;;;;;;;;;;1044288;28;2944;-52
2022/12/24 03:23:30;;;;;;;;;;;;;;;;;;1044844;28;3881;-52
2022/12/24 03:24:01;;;;;;;;;;;;;;;;;;1043506;28;1815;-52
2022/12/24 03:24:31;;;;;;;;;;;;;;;;;;1043231;28;4047;-58
2022/12/24 03:25:02;;;;;;;;;;;;;;;;;;1049586;28;3021;-53
2022/12/24 03:25:33;;;;;;;;;;;;;;;;;;1048320;28;3782;-55
2022/12/24 03:26:05;;;;;;;;;;;;;;;;;;1048077;28;2999;-54
2022/12/24 03:26:37;;;;;;;;;;;;;;;;;;1049286;28;4259;-54
2022/12/24 03:27:08;;;;;;;;;;;;;;;;;;1050774;28;2593;-52
2022/12/24 03:27:39;;;;;;;;;;;;;;;;;;1049555;28;4043;-56
2022/12/24 03:28:11;;;;;;;;;;;;;;;;;;1047502;28;1681;-52
2022/12/24 03:28:42;;;;;;;;;;;;;;;;;;1046994;28;3926;-55
2022/12/24 03:29:12;;;;;;;;;;;;;;;;;;1046990;28;1592;-55
2022/12/24 03:29:43;;;;;;;;;;;;;;;;;;1047839;28;4448;-50
2022/12/24 03:30:14;;;;;;;;;;;;;;;;;;1047655;28;2533;-55
2022/12/24 03:30:46;;;;;;;;;;;;;;;;;;1047762;28;3751;-52
2022/12/24 03:31:17;;;;;;;;;;;;;;;;;;1048164;28;1721;-54
2022/12/24 03:31:49;;;;;;;;;;;;;;;;;;1051276;28;3995;-53
2022/12/24 03:32:37;;;;;;;;;;;;;;;;;;1050270;28;3815;-56
2022/12/24 03:33:08;;;;;;;;;;;;;;;;;;1044632;28;2971;-49
2022/12/24 03:33:39;;;;;;;;;;;;;;;;;;1043418;28;4268;-49
2022/12/24 03:34:09;;;;;;;;;;;;;;;;;;1045936;28;2843;-53
2022/12/24 03:34:40;;;;;;;;;;;;;;;;;;1044515;28;4376;-52
2022/12/24 03:35:10;;;;;;;;;;;;;;;;;;1048023;28;1861;-57
2022/12/24 03:35:40;;;;;;;;;;;;;;;;;;1047365;28;3846;-50
2022/12/24 03:36:11;;;;;;;;;;;;;;;;;;1043885;28;1993;-54
2022/12/24 03:36:41;;;;;;;;;;;;;;;;;;1044785;28;3916;-56
2022/12/24 03:37:11;;;;;;;;;;;;;;;;;;1039825;28;2885;-51
2022/12/24 03:37:42;;;;;;;;;;;;;;;;;;1042037;28;3925;-52
2022/12/24 03:38:12;;;;;;;;;;;;;;;;;;1043612;28;3188;-54
2022/12/24 03:38:42;;;;;;;;;;;;;;;;;;1042270;28;3886;-54
2022/12/24 03:39:12;;;;;;;;;;;;;;;;;;1049250;28;2742;-55
2022/12/24 03:39:43;;;;;;;;;;;;;;;;;;1047946;28;4052;-53
2022/12/24 03:40:13;;;;;;;;;;;;;;;;;;1047940;28;2104;-50
2022/12/24 03:40:43;;;;;;;;;;;;;;;;;;1048616;28;3936;-56
2022/12/24 03:41:13;;;;;;;;;;;;;;;;;;1048680;28;2435;-55
2022/12/24 03:41:44;;;;;;;;;;;;;;;;;;1047046;28;3962;-55
2022/12/24 03:42:14;;;;;;;;;;;;;;;;;;1049344;28;2785;-56
2022/12/24 03:42:44;;;;;;;;;;;;;;;;;;1050782;28;3752;-50
2022/12/24 03:43:15;;;;;;;;;;;;;;;;;;1047416;28;1886;-50
2022/12/24 03:43:45;;;;;;;;;;;;;;;;;;1048247;28;3984;-52
2022/12/24 03:44:15;;;;;;;;;;;;;;;;;;1048671;28;1907;-51
2022/12/24 03:44:46;;;;;;;;;;;;;;;;;;1047956;28;3876;-56
2022/12/24 03:45:16;;;;;;;;;;;;;;;;;;1048183;28;2473;-51
2022/12/24 03:45:46;;;;;;;;;;;;;;;;;;1051522;28;3716;-52
2022/12/24 03:46:16;;;;;;;;;;;;;;;;;;1048246;28;4127;-54
2022/12/24 03:46:47;;;;;;;;;;;;;;;;;;1049626;28;2083;-51
2022/12/24 03:47:17;;;;;;;;;;;;;;;;;;1046858;28;3809;-52
2022/12/24 03:47:47;;;;;;;;;;;;;;;;;;1049137;28;1674;-55
2022/12/24 03:48:17;;;;;;;;;;;;;;;;;;1043295;28;3966;-56
2022/12/24 03:48:48;;;;;;;;;;;;;;;;;;1044814;28;2800;-51
2022/12/24 03:49:18;;;;;;;;;;;;;;;;;;1043091;28;3776;-50
2022/12/24 03:49:48;;;;;;;;;;;;;;;;;;1045072;28;3028;-55
2022/12/24 03:50:18;;;;;;;;;;;;;;;;;;1042428;28;3969;-52
2022/12/24 03:50:55;;;;;;;;;;;;;;;;;;1043014;28;2400;-53
2022/12/24 03:51:26;;;;;;;;;;;;;;;;;;1043372;28;4414;-56
2022/12/24 03:51:56;;;;;;;;;;;;;;;;;;1042700;28;2159;-53
2022/12/24 03:52:27;;;;;;;;;;;;;;;;;;1042538;28;4407;-52